createdAt,value
2022-09-01T00:00:33.495Z,101959.75
2022-09-01T00:05:37.238Z,101935.00
2022-09-01T00:10:41.684Z,101940.00
2022-09-01T00:15:46.781Z,101940.75
2022-09-01T00:20:50.492Z,101937.94
2022-09-01T00:25:54.710Z,101943.16
2022-09-01T00:30:59.940Z,101935.94
2022-09-01T00:36:05.466Z,101937.41
2022-09-01T00:41:10.041Z,101939.22
2022-09-01T00:46:18.397Z,101934.78
2022-09-01T00:51:24.825Z,101927.72
2022-09-01T00:56:30.456Z,101926.72
2022-09-01T01:01:36.788Z,101931.06
2022-09-01T01:06:41.079Z,101928.22
2022-09-01T01:11:46.455Z,101923.88
2022-09-01T01:16:52.361Z,101921.19
2022-09-01T01:22:15.645Z,101918.56
2022-09-01T01:27:21.907Z,101922.00
2022-09-01T01:32:26.504Z,101917.44
2022-09-01T01:37:31.035Z,101921.56
2022-09-01T01:42:37.929Z,101918.78
2022-09-01T01:47:42.338Z,101918.53
2022-09-01T01:52:46.054Z,101931.56
2022-09-01T01:57:51.432Z,101923.47
2022-09-01T02:02:57.254Z,101938.94
2022-09-01T02:08:04.723Z,101935.25
2022-09-01T02:13:16.152Z,101929.88
2022-09-01T02:18:23.806Z,101930.59
2022-09-01T02:23:30.082Z,101923.47
2022-09-01T02:28:40.090Z,101924.78
2022-09-01T02:33:45.665Z,101933.47
2022-09-01T02:38:53.299Z,101926.19
2022-09-01T02:44:02.224Z,101921.69
2022-09-01T02:49:08.595Z,101926.13
2022-09-01T02:54:15.460Z,101925.19
2022-09-01T02:59:21.948Z,101920.53
2022-09-01T03:04:27.222Z,101918.75
2022-09-01T03:09:32.663Z,101909.66
2022-09-01T03:14:37.789Z,101914.78
2022-09-01T03:19:42.498Z,101909.47
2022-09-01T03:24:46.180Z,101911.84
2022-09-01T03:29:51.375Z,101906.31
2022-09-01T03:34:55.155Z,101910.47
2022-09-01T03:39:58.975Z,101906.75
2022-09-01T03:45:09.028Z,101905.69
2022-09-01T03:50:20.324Z,101905.56
2022-09-01T03:55:27.360Z,101893.25
2022-09-01T04:00:35.899Z,101898.22
2022-09-01T04:05:44.117Z,101897.09
2022-09-01T04:10:54.404Z,101895.22
2022-09-01T04:16:00.464Z,101891.41
2022-09-01T04:21:07.223Z,101894.00
2022-09-01T04:26:14.849Z,101891.19
2022-09-01T04:31:22.363Z,101901.56
2022-09-01T04:36:28.623Z,101899.69
2022-09-01T04:41:33.879Z,101903.00
2022-09-01T04:46:42.488Z,101892.50
2022-09-01T04:51:53.120Z,101901.97
2022-09-01T04:56:57.650Z,101900.87
2022-09-01T05:02:07.775Z,101900.69
2022-09-01T05:07:14.204Z,101903.22
2022-09-01T05:12:23.191Z,101901.50
2022-09-01T05:17:29.143Z,101899.91
2022-09-01T05:22:33.638Z,101900.78
2022-09-01T05:27:49.461Z,101900.78
2022-09-01T05:32:55.083Z,101903.59
2022-09-01T05:37:59.988Z,101909.62
2022-09-01T05:43:04.486Z,101913.12
2022-09-01T05:48:10.187Z,101911.34
2022-09-01T05:53:17.215Z,101914.97
2022-09-01T05:58:26.679Z,101917.87
2022-09-01T06:03:33.312Z,101912.78
2022-09-01T06:08:46.820Z,101917.41
2022-09-01T06:13:55.206Z,101925.22
2022-09-01T06:19:01.087Z,101933.41
2022-09-01T06:24:07.287Z,101924.87
2022-09-01T06:29:15.492Z,101925.00
2022-09-01T06:34:21.687Z,101918.16
2022-09-01T06:39:26.583Z,101924.41
2022-09-01T06:44:32.202Z,101920.34
2022-09-01T06:49:41.139Z,101928.53
2022-09-01T06:54:45.218Z,101938.44
2022-09-01T06:59:49.258Z,101940.56
2022-09-01T07:04:58.079Z,101934.91
2022-09-01T07:10:22.650Z,101943.47
2022-09-01T07:16:31.901Z,101938.66
2022-09-01T07:21:38.893Z,101940.91
2022-09-01T07:26:26.964Z,101949.22
2022-09-01T07:32:41.111Z,101944.63
2022-09-01T07:38:47.314Z,101940.66
2022-09-01T07:48:03.187Z,101944.38
2022-09-01T07:53:11.148Z,101943.09
2022-09-01T07:58:15.817Z,101950.56
2022-09-01T08:03:24.195Z,101952.91
2022-09-01T08:08:29.753Z,101949.22
2022-09-01T08:13:40.699Z,101949.75
2022-09-01T08:18:48.806Z,101947.59
2022-09-01T08:23:58.251Z,101952.56
2022-09-01T08:29:02.289Z,101946.00
2022-09-01T08:34:06.726Z,101954.44
2022-09-01T08:39:12.138Z,101943.50
2022-09-01T08:44:28.497Z,101940.72
2022-09-01T08:49:42.929Z,101933.31
2022-09-01T08:54:52.003Z,101947.03
2022-09-01T08:59:56.781Z,101942.31
2022-09-01T09:05:21.632Z,101940.06
2022-09-01T09:10:33.164Z,101934.28
2022-09-01T09:15:42.818Z,101929.34
2022-09-01T09:20:46.899Z,101923.56
2022-09-01T09:25:52.081Z,101923.09
2022-09-01T09:31:26.612Z,101914.69
2022-09-01T09:36:33.856Z,101917.84
2022-09-01T09:41:40.205Z,101913.81
2022-09-01T09:46:47.651Z,101899.16
2022-09-01T09:51:53.892Z,101910.81
2022-09-01T09:57:13.315Z,101910.12
2022-09-01T10:02:31.334Z,101900.44
2022-09-01T10:07:37.344Z,101906.62
2022-09-01T10:12:42.570Z,101898.69
2022-09-01T10:17:49.362Z,101892.50
2022-09-01T10:22:54.158Z,101895.16
2022-09-01T10:28:05.597Z,101879.22
2022-09-01T10:33:19.176Z,101877.25
2022-09-01T10:38:27.790Z,101881.88
2022-09-01T10:43:41.066Z,101882.94
2022-09-01T10:48:48.624Z,101877.72
2022-09-01T10:54:02.214Z,101871.59
2022-09-01T11:05:10.816Z,101872.19
2022-09-01T11:10:44.569Z,101864.59
2022-09-01T11:15:50.085Z,101866.31
2022-09-01T11:20:55.563Z,101861.47
2022-09-01T11:31:32.139Z,101850.00
2022-09-01T11:36:39.011Z,101850.78
2022-09-01T11:41:57.449Z,101852.50
2022-09-01T11:47:13.648Z,101843.47
2022-09-01T11:52:19.617Z,101836.84
2022-09-01T11:57:29.570Z,101834.53
2022-09-01T12:02:37.339Z,101835.22
2022-09-01T12:07:45.879Z,101824.38
2022-09-01T12:12:49.636Z,101824.25
2022-09-01T12:17:55.239Z,101824.53
2022-09-01T12:23:02.300Z,101818.91
2022-09-01T12:28:06.912Z,101823.63
2022-09-01T12:33:24.186Z,101809.16
2022-09-01T12:38:31.971Z,101799.75
2022-09-01T12:43:38.893Z,101803.81
2022-09-01T12:48:44.753Z,101811.03
2022-09-01T12:53:53.974Z,101807.09
2022-09-01T12:59:14.245Z,101798.53
2022-09-01T13:04:30.975Z,101797.66
2022-09-01T13:09:35.334Z,101783.66
2022-09-01T13:14:39.105Z,101784.81
2022-09-01T13:19:44.289Z,101782.91
2022-09-01T13:24:48.766Z,101778.78
2022-09-01T13:29:53.392Z,101784.25
2022-09-01T13:34:58.697Z,101783.16
2022-09-01T13:40:02.741Z,101773.00
2022-09-01T13:45:07.533Z,101764.03
2022-09-01T13:50:19.939Z,101759.37
2022-09-01T13:55:29.085Z,101755.06
2022-09-01T14:00:36.050Z,101748.19
2022-09-01T14:05:44.961Z,101757.22
2022-09-01T14:10:52.927Z,101748.28
2022-09-01T14:15:56.729Z,101740.41
2022-09-01T14:21:02.326Z,101741.97
2022-09-01T14:26:09.984Z,101739.56
2022-09-01T14:31:15.409Z,101731.22
2022-09-01T14:36:22.839Z,101718.91
2022-09-01T14:41:27.085Z,101718.81
2022-09-01T14:46:34.387Z,101709.91
2022-09-01T15:02:29.423Z,101696.56
2022-09-01T15:07:34.636Z,101692.13
2022-09-01T15:12:39.941Z,101689.81
2022-09-01T15:17:46.430Z,101686.25
2022-09-01T15:22:52.065Z,101679.41
2022-09-01T15:27:55.868Z,101672.38
2022-09-01T15:32:59.623Z,101676.12
2022-09-01T15:38:05.378Z,101665.66
2022-09-01T15:43:11.609Z,101666.00
2022-09-01T15:48:15.833Z,101667.06
2022-09-01T15:53:21.275Z,101665.50
2022-09-01T15:58:30.433Z,101657.34
2022-09-01T16:03:43.106Z,101655.47
2022-09-01T16:08:48.280Z,101652.72
2022-09-01T16:13:53.920Z,101647.31
2022-09-01T16:19:02.289Z,101637.41
2022-09-01T16:24:10.625Z,101646.94
2022-09-01T16:29:20.487Z,101643.97
2022-09-01T16:34:28.303Z,101633.06
2022-09-01T16:39:40.563Z,101627.16
2022-09-01T16:44:56.412Z,101627.31
2022-09-01T16:50:08.934Z,101619.38
2022-09-01T16:55:31.132Z,101620.41
2022-09-01T17:00:43.705Z,101619.25
2022-09-01T17:05:55.553Z,101614.91
2022-09-01T17:11:09.649Z,101605.22
2022-09-01T17:16:22.151Z,101610.78
2022-09-01T17:21:33.231Z,101612.44
2022-09-01T17:26:40.212Z,101621.22
2022-09-01T17:31:59.844Z,101614.06
2022-09-01T17:37:15.627Z,101601.25
2022-09-01T17:42:33.598Z,101602.75
2022-09-01T17:47:57.154Z,101603.31
2022-09-01T17:53:11.744Z,101599.81
2022-09-01T17:58:31.591Z,101601.03
2022-09-01T18:03:46.816Z,101601.38
2022-09-01T18:08:54.922Z,101597.44
2022-09-01T18:14:06.131Z,101603.09
2022-09-01T18:19:17.294Z,101609.87
2022-09-01T18:24:27.367Z,101613.63
2022-09-01T18:29:32.543Z,101617.38
2022-09-01T18:35:02.323Z,101614.19
2022-09-01T18:40:17.343Z,101626.87
2022-09-01T18:45:33.773Z,101632.38
2022-09-01T18:50:48.286Z,101626.31
2022-09-01T18:56:01.807Z,101628.25
2022-09-01T19:01:08.331Z,101625.78
2022-09-01T19:06:29.300Z,101630.25
2022-09-01T19:11:47.735Z,101635.66
2022-09-01T19:17:05.737Z,101638.38
2022-09-01T19:22:18.369Z,101638.44
2022-09-01T19:27:25.940Z,101635.81
2022-09-01T19:32:33.172Z,101638.47
2022-09-01T19:37:36.965Z,101639.38
2022-09-01T19:42:44.546Z,101642.88
2022-09-01T19:47:57.988Z,101637.59
2022-09-01T19:53:08.494Z,101650.81
2022-09-01T19:58:17.972Z,101647.28
2022-09-01T20:03:29.492Z,101649.91
2022-09-01T20:08:38.212Z,101650.69
2022-09-01T20:14:04.577Z,101649.81
2022-09-01T20:19:16.331Z,101651.47
2022-09-01T20:24:34.942Z,101660.25
2022-09-01T20:29:46.465Z,101657.56
2022-09-01T20:34:55.471Z,101659.22
2022-09-01T20:40:01.150Z,101660.00
2022-09-01T20:45:12.741Z,101651.13
2022-09-01T20:50:19.542Z,101648.44
2022-09-01T20:55:27.562Z,101649.25
2022-09-01T21:00:36.190Z,101644.81
2022-09-01T21:05:49.655Z,101644.72
2022-09-01T21:11:01.168Z,101646.41
2022-09-01T21:16:11.898Z,101649.84
2022-09-01T21:21:26.951Z,101647.13
2022-09-01T21:26:31.339Z,101649.66
2022-09-01T21:31:35.154Z,101633.75
2022-09-01T21:36:40.220Z,101631.06
2022-09-01T21:41:43.991Z,101624.78
2022-09-01T21:46:48.068Z,101615.94
2022-09-01T21:51:54.113Z,101614.94
2022-09-01T21:56:57.881Z,101620.16
2022-09-01T22:02:01.885Z,101616.56
2022-09-01T22:07:16.895Z,101620.81
2022-09-01T22:12:20.751Z,101616.28
2022-09-01T22:17:24.456Z,101612.66
2022-09-01T22:22:29.670Z,101602.00
2022-09-01T22:27:33.492Z,101603.63
2022-09-01T22:32:39.913Z,101601.75
2022-09-01T22:37:45.182Z,101606.00
2022-09-01T22:42:49.036Z,101604.13
2022-09-01T22:47:52.824Z,101599.53
2022-09-01T22:52:57.866Z,101588.88
2022-09-01T22:58:01.550Z,101596.63
2022-09-01T23:03:05.782Z,101589.44
2022-09-01T23:08:10.882Z,101575.28
2022-09-01T23:13:15.116Z,101580.47
2022-09-01T23:18:19.298Z,101577.69
2022-09-01T23:23:24.880Z,101569.63
2022-09-01T23:28:29.480Z,101573.06
2022-09-01T23:33:33.175Z,101571.19
2022-09-01T23:38:39.383Z,101572.69
2022-09-01T23:43:44.258Z,101565.69
2022-09-01T23:48:48.327Z,101563.00
2022-09-01T23:53:53.760Z,101556.72
2022-09-01T23:58:59.021Z,101555.63
